Time;durP1;ratioP1;P1;durP2;ratioP2;P2;SDS_P1;SDS_P2;PMS_P1;PMS_P2;Temp;Humidity;BMP_temperature;BMP_pressure;BME280_temperature;BME280_humidity;BME280_pressure;Samples;Min_cycle;Max_cycle;Signal;HPM_P1;HPM_P2
2022/12/12 00:01:28;;;;;;;30.70;20.75;;;;;;;-0.84;100.00;160356.81;5051765;28;20072;-62
2022/12/12 00:03:53;;;;;;;31.58;22.90;;;;;;;-0.82;100.00;160360.84;5013615;28;20038;-63
2022/12/12 00:06:19;;;;;;;30.80;21.60;;;;;;;-0.79;100.00;160368.88;5047289;28;20048;-63
2022/12/12 00:08:45;;;;;;;38.20;22.15;;;;;;;-0.79;100.00;160368.88;5053037;28;20070;-62
2022/12/12 00:11:11;;;;;;;28.33;20.92;;;;;;;-0.86;100.00;160350.16;5051858;28;20049;-61
2022/12/12 00:13:36;;;;;;;36.47;24.00;;;;;;;-0.82;100.00;160360.84;5053494;28;20032;-62
2022/12/12 00:16:03;;;;;;;34.13;27.17;;;;;;;-0.80;100.00;160367.53;5045814;28;20142;-62
2022/12/12 00:18:29;;;;;;;34.30;23.92;;;;;;;-0.81;100.00;160363.53;5033822;28;20033;-62
2022/12/12 00:20:55;;;;;;;33.80;23.95;;;;;;;-0.77;100.00;160374.22;5031925;28;20058;-61
2022/12/12 00:23:22;;;;;;;33.22;22.63;;;;;;;-0.84;100.00;160356.81;5032978;28;20026;-61
2022/12/12 00:25:56;;;;;;;36.85;22.40;;;;;;;-0.84;100.00;160355.47;5031662;28;20045;-61
2022/12/12 00:28:22;;;;;;;34.70;25.67;;;;;;;-0.88;100.00;160344.78;5033318;28;20037;-61
2022/12/12 00:30:48;;;;;;;37.55;26.65;;;;;;;-0.91;100.00;160336.72;5042033;28;20116;-63
2022/12/12 00:33:13;;;;;;;38.30;28.60;;;;;;;-0.89;100.00;160343.41;5052824;28;20036;-62
2022/12/12 00:35:38;;;;;;;41.00;29.50;;;;;;;-0.90;100.00;160339.41;5052960;28;20021;-63
2022/12/12 00:38:03;;;;;;;44.38;28.67;;;;;;;-0.91;100.00;160338.09;5048769;28;20487;-62
2022/12/12 00:40:29;;;;;;;37.15;25.15;;;;;;;-0.93;100.00;160331.41;5032887;28;20026;-63
2022/12/12 00:42:54;;;;;;;36.72;25.17;;;;;;;-0.93;100.00;160331.41;5031047;28;20045;-63
2022/12/12 00:45:19;;;;;;;36.65;25.40;;;;;;;-0.97;100.00;160323.34;5032241;28;20049;-63
2022/12/12 00:47:45;;;;;;;37.53;25.17;;;;;;;-0.97;100.00;160323.34;5031216;28;20034;-62
2022/12/12 00:50:10;;;;;;;41.95;27.17;;;;;;;-0.97;100.00;160323.34;5032525;28;20828;-63
2022/12/12 00:52:35;;;;;;;39.53;25.60;;;;;;;-0.95;100.00;160327.34;5031196;28;20045;-63
2022/12/12 00:55:01;;;;;;;38.55;28.33;;;;;;;-0.91;100.00;160336.72;5032377;28;20030;-63
2022/12/12 00:57:26;;;;;;;37.47;26.20;;;;;;;-0.87;100.00;160347.47;5030831;28;20040;-62
2022/12/12 00:59:52;;;;;;;44.22;29.42;;;;;;;-0.94;100.00;160330.03;5032012;28;20491;-62
2022/12/12 01:02:18;;;;;;;42.63;28.42;;;;;;;-0.93;100.00;160331.41;5031062;28;20045;-62
2022/12/12 01:04:43;;;;;;;42.30;29.60;;;;;;;-0.95;100.00;160327.34;5032240;28;20483;-62
2022/12/12 01:07:09;;;;;;;41.17;30.20;;;;;;;-0.98;100.00;160320.66;5041524;28;20052;-63
2022/12/12 01:09:34;;;;;;;54.17;30.60;;;;;;;-0.95;100.00;160327.34;5051917;28;20025;-62
2022/12/12 01:12:00;;;;;;;39.70;29.00;;;;;;;-0.97;100.00;160322.03;5050579;28;20492;-62
2022/12/12 01:14:25;;;;;;;42.50;27.42;;;;;;;-1.00;100.00;160315.28;5033473;28;20037;-63
2022/12/12 01:16:50;;;;;;;43.25;28.30;;;;;;;-0.97;100.00;160323.34;5031060;28;20017;-62
2022/12/12 01:19:16;;;;;;;45.38;29.58;;;;;;;-0.99;100.00;160317.97;5031828;28;20029;-62
2022/12/12 01:21:41;;;;;;;51.38;31.17;;;;;;;-0.93;100.00;160331.41;5030313;28;20033;-62
2022/12/12 01:24:06;;;;;;;40.17;29.73;;;;;;;-0.93;100.00;160331.41;5031676;28;20025;-62
2022/12/12 01:26:32;;;;;;;45.25;27.77;;;;;;;-0.92;100.00;160334.03;5030677;28;20376;-61
2022/12/12 01:28:57;;;;;;;47.50;28.90;;;;;;;-0.90;100.00;160339.41;5031460;28;20025;-63
2022/12/12 01:31:22;;;;;;;34.97;24.65;;;;;;;-0.91;100.00;160336.72;5030654;28;20034;-62
2022/12/12 01:33:48;;;;;;;37.40;26.13;;;;;;;-0.91;100.00;160336.72;5031821;28;20033;-62
2022/12/12 01:36:16;;;;;;;49.72;30.88;;;;;;;-0.87;100.00;160347.47;5029735;28;20049;-63
2022/12/12 01:38:46;;;;;;;38.80;28.63;;;;;;;-0.82;100.00;160360.84;5036454;28;20021;-63
2022/12/12 01:41:12;;;;;;;44.42;29.13;;;;;;;-0.81;100.00;160363.53;5042115;28;20049;-64
2022/12/12 01:43:38;;;;;;;38.83;29.25;;;;;;;-0.88;100.00;160344.78;5031488;28;20029;-63
2022/12/12 01:46:03;;;;;;;40.97;28.55;;;;;;;-0.85;100.00;160354.16;5029883;28;20052;-63
2022/12/12 01:48:34;;;;;;;42.92;28.42;;;;;;;-0.81;100.00;160363.53;5031583;28;20131;-63
2022/12/12 01:51:02;;;;;;;44.63;30.45;;;;;;;-0.90;100.00;160340.75;5028580;28;20128;-63
2022/12/12 01:53:30;;;;;;;42.78;29.00;;;;;;;-0.86;100.00;160351.47;5031401;28;20196;-63
2022/12/12 01:55:57;;;;;;;48.22;31.15;;;;;;;-0.93;100.00;160332.72;5029820;28;20029;-63
2022/12/12 01:58:24;;;;;;;47.08;32.92;;;;;;;-0.81;100.00;160363.53;5031216;28;20017;-63
2022/12/12 02:00:49;;;;;;;43.30;28.08;;;;;;;-0.85;100.00;160354.16;5029780;28;20082;-63
2022/12/12 02:03:15;;;;;;;48.00;30.70;;;;;;;-0.88;100.00;160344.78;5031108;28;20022;-63
2022/12/12 02:05:58;;;;;;;49.97;33.30;;;;;;;-0.93;100.00;160332.72;5032843;28;20021;-63
2022/12/12 02:08:25;;;;;;;40.53;27.42;;;;;;;-0.96;100.00;160326.03;5050561;28;20028;-64
2022/12/12 02:10:50;;;;;;;49.15;33.30;;;;;;;-0.93;100.00;160332.72;5049469;28;20048;-63
2022/12/12 02:13:22;;;;;;;49.78;31.77;;;;;;;-0.92;100.00;160335.41;5050482;28;20090;-62
2022/12/12 02:16:12;;;;;;;43.83;30.02;;;;;;;-0.89;100.00;160343.41;5043686;28;20017;-62
2022/12/12 02:18:50;;;;;;;49.25;31.98;;;;;;;-0.98;100.00;160319.34;5051187;28;20369;-62
2022/12/12 02:21:41;;;;;;;45.78;30.30;;;;;;;-0.94;100.00;160328.72;5048837;28;20029;-62
2022/12/12 02:24:24;;;;;;;52.10;32.75;;;;;;;-0.91;100.00;160338.09;5040062;28;20040;-61
2022/12/12 02:26:56;;;;;;;47.10;29.25;;;;;;;-0.96;100.00;160324.66;5029651;28;20111;-62
2022/12/12 02:29:45;;;;;;;49.20;32.47;;;;;;;-0.94;100.00;160328.72;5047730;28;20039;-61
2022/12/12 02:32:25;;;;;;;42.20;30.25;;;;;;;-0.89;100.00;160342.09;5048825;28;20041;-61
2022/12/12 02:35:28;;;;;;;49.80;32.78;;;;;;;-0.87;100.00;160347.47;5050771;28;20483;-64
2022/12/12 02:38:20;;;;;;;45.75;28.35;;;;;;;-0.93;100.00;160331.41;5035865;28;20037;-62
2022/12/12 02:40:59;;;;;;;51.72;30.70;;;;;;;-1.00;100.00;160315.28;5029645;28;20098;-62
2022/12/12 02:43:29;;;;;;;56.70;32.45;;;;;;;-1.02;100.00;160309.97;5030545;28;20082;-62
2022/12/12 02:46:00;;;;;;;48.17;31.80;;;;;;;-1.03;100.00;160305.91;5034418;28;20037;-62
2022/12/12 02:48:33;;;;;;;45.88;32.92;;;;;;;-1.04;100.00;160304.59;5030912;28;20088;-61
2022/12/12 02:51:01;;;;;;;52.25;33.08;;;;;;;-1.03;100.00;160307.28;5028786;28;20045;-62
2022/12/12 02:53:27;;;;;;;49.13;34.70;;;;;;;-1.03;100.00;160307.28;5030773;28;20061;-62
2022/12/12 02:56:06;;;;;;;51.75;35.30;;;;;;;-1.03;100.00;160305.91;5028654;28;20052;-62
2022/12/12 02:58:35;;;;;;;46.60;33.17;;;;;;;-1.04;100.00;160304.59;5039885;28;20079;-62
2022/12/12 03:01:18;;;;;;;49.72;34.33;;;;;;;-1.03;100.00;160307.28;5042494;28;20539;-62
2022/12/12 03:09:55;;;;;;;43.70;30.10;;;;;;;-0.98;100.00;160320.66;5034741;28;20040;-62
2022/12/12 03:12:48;;;;;;;47.70;31.90;;;;;;;-0.98;100.00;160320.66;5034100;28;20453;-62
2022/12/12 03:15:24;;;;;;;51.45;32.00;;;;;;;-0.99;100.00;160316.66;5054305;28;20029;-62
2022/12/12 03:18:08;;;;;;;51.42;30.17;;;;;;;-0.93;100.00;160332.72;5052977;28;20033;-64
2022/12/12 03:20:48;;;;;;;48.75;31.45;;;;;;;-0.91;100.00;160336.72;5052966;28;20091;-63
2022/12/12 03:23:17;;;;;;;43.35;29.98;;;;;;;-0.83;100.00;160358.16;5052548;28;20094;-63
2022/12/12 03:26:05;;;;;;;42.65;28.88;;;;;;;-0.78;100.00;160370.22;5052742;28;20106;-63
2022/12/12 03:28:37;;;;;;;;;;;;;;;-0.77;100.00;160374.22;5044734;28;20026;-63
2022/12/12 03:31:08;;;;;;;39.40;26.75;;;;;;;-0.76;100.00;160375.56;5032476;28;19978;-63
2022/12/12 03:33:44;;;;;;;45.70;28.45;;;;;;;-0.78;100.00;160371.53;5034225;28;20033;-63
2022/12/12 03:36:45;;;;;;;43.30;32.33;;;;;;;-0.74;100.00;160382.28;5031928;28;20061;-63
2022/12/12 03:39:19;;;;;;;40.08;29.33;;;;;;;-0.75;100.00;160379.59;5030980;28;20775;-62
2022/12/12 03:41:53;;;;;;;47.22;33.72;;;;;;;-0.76;100.00;160376.91;5032228;28;20044;-62
2022/12/12 03:44:24;;;;;;;48.92;32.60;;;;;;;-0.76;100.00;160375.56;5033524;28;20127;-61
2022/12/12 03:47:00;;;;;;;48.90;32.95;;;;;;;-0.82;100.00;160362.16;5032382;28;20460;-61
2022/12/12 03:49:32;;;;;;;46.10;30.70;;;;;;;-0.93;100.00;160331.41;5033700;28;20022;-61
2022/12/12 03:52:05;;;;;;;47.90;31.65;;;;;;;-1.02;100.00;160309.97;5035876;28;20045;-62
2022/12/12 03:54:37;;;;;;;48.33;30.95;;;;;;;-1.04;100.00;160303.28;5033648;28;20032;-62
2022/12/12 03:57:11;;;;;;;53.67;34.42;;;;;;;-1.04;100.00;160304.59;5032828;28;20048;-62
2022/12/12 03:59:46;;;;;;;42.13;31.10;;;;;;;-1.07;100.00;160295.22;5043337;28;20643;-62
2022/12/12 04:02:15;;;;;;;50.65;32.78;;;;;;;-1.12;100.00;160284.47;5031781;28;20124;-64
2022/12/12 04:04:55;;;;;;;45.88;29.33;;;;;;;-1.14;100.00;160277.78;5032936;28;20087;-64
2022/12/12 04:07:29;;;;;;;46.35;30.17;;;;;;;-1.15;100.00;160276.47;5032177;28;20097;-64
2022/12/12 04:12:59;;;;;;;49.40;31.45;;;;;;;-1.16;100.00;160272.47;5050553;28;20139;-64
2022/12/12 04:16:02;;;;;;;60.67;33.25;;;;;;;-1.17;100.00;160271.09;5034512;28;20033;-64
2022/12/12 04:18:54;;;;;;;42.22;28.15;;;;;;;-1.07;100.00;160295.22;4951206;29;20451;-62
2022/12/12 04:24:42;;;;;;;56.95;30.77;;;;;;;-1.14;100.00;160277.78;5053019;28;20044;-62
2022/12/12 04:27:23;;;;;;;54.60;33.97;;;;;;;-1.16;100.00;160273.78;5035532;28;20571;-62
2022/12/12 04:30:02;;;;;;;50.83;33.80;;;;;;;-1.16;100.00;160273.78;5045835;28;20106;-62
2022/12/12 04:32:56;;;;;;;60.67;33.70;;;;;;;-1.14;100.00;160277.78;5051506;28;20048;-62
2022/12/12 04:35:44;;;;;;;51.15;32.08;;;;;;;-1.14;100.00;160277.78;5052941;28;20060;-64
2022/12/12 04:38:17;;;;;;;51.78;32.38;;;;;;;-1.15;100.00;160275.09;5051514;28;20043;-65
2022/12/12 04:40:45;;;;;;;56.53;34.38;;;;;;;-1.15;100.00;160276.47;5050134;28;20399;-65
2022/12/12 04:43:14;;;;;;;53.57;34.00;;;;;;;-1.16;100.00;160272.47;5052226;28;20437;-65
2022/12/12 04:45:44;;;;;;;52.60;33.38;;;;;;;-1.16;100.00;160272.47;5051185;28;20049;-65
2022/12/12 04:48:15;;;;;;;56.33;33.85;;;;;;;-1.19;100.00;160265.75;5051355;28;20021;-65
2022/12/12 04:50:43;;;;;;;52.75;33.08;;;;;;;-1.18;100.00;160267.09;5050946;28;20036;-62
2022/12/12 04:53:12;;;;;;;49.78;32.47;;;;;;;-1.15;100.00;160276.47;5052117;28;20028;-62
2022/12/12 04:55:43;;;;;;;44.92;29.65;;;;;;;-1.13;100.00;160280.47;5046673;28;20051;-61
2022/12/12 04:58:10;;;;;;;56.67;35.72;;;;;;;-1.13;100.00;160281.84;5037489;28;20041;-62
2022/12/12 05:00:47;;;;;;;54.33;36.50;;;;;;;-1.12;100.00;160283.16;5052559;28;20048;-62
2022/12/12 05:03:30;;;;;;;54.75;33.08;;;;;;;-1.13;100.00;160280.47;5033283;28;20420;-63
2022/12/12 05:06:00;;;;;;;59.95;33.97;;;;;;;-1.12;100.00;160284.47;5030477;28;20458;-62
2022/12/12 05:08:35;;;;;;;54.33;35.42;;;;;;;-1.12;100.00;160283.16;5033439;28;20056;-62
2022/12/12 05:11:03;;;;;;;59.17;33.50;;;;;;;-1.13;100.00;160281.84;5029953;28;20058;-67
2022/12/12 05:13:31;;;;;;;52.35;31.67;;;;;;;-1.13;100.00;160280.47;5038706;28;20031;-64
2022/12/12 05:15:59;;;;;;;50.58;33.83;;;;;;;-1.12;100.00;160283.16;5048804;28;20029;-64
2022/12/12 05:18:25;;;;;;;61.58;38.42;;;;;;;-1.14;100.00;160277.78;5051711;28;20031;-65
2022/12/12 05:20:50;;;;;;;62.65;37.67;;;;;;;-1.08;100.00;160293.84;5038085;28;20384;-65
2022/12/12 05:23:16;;;;;;;50.90;32.63;;;;;;;-1.09;100.00;160291.22;5031721;28;20956;-64
2022/12/12 05:25:41;;;;;;;61.13;33.88;;;;;;;-1.11;100.00;160285.84;5030631;28;20025;-64
2022/12/12 05:28:06;;;;;;;59.17;36.42;;;;;;;-1.10;100.00;160288.53;5038139;28;20032;-65
2022/12/12 05:30:33;;;;;;;60.35;37.03;;;;;;;-1.08;100.00;160292.53;5047986;28;20112;-65
2022/12/12 05:32:58;;;;;;;55.50;36.85;;;;;;;-1.12;100.00;160284.47;5049822;28;20128;-65
2022/12/12 05:35:24;;;;;;;55.67;35.47;;;;;;;-1.10;100.00;160288.53;5045129;28;20036;-65
2022/12/12 05:37:49;;;;;;;56.33;37.75;;;;;;;-1.02;100.00;160309.97;5037196;28;20032;-65
2022/12/12 05:40:15;;;;;;;55.08;38.83;;;;;;;-1.00;100.00;160313.97;5031075;28;20519;-65
2022/12/12 05:42:40;;;;;;;61.10;36.72;;;;;;;-0.99;100.00;160316.66;5030227;28;20060;-65
2022/12/12 05:45:07;;;;;;;57.65;37.03;;;;;;;-1.01;100.00;160311.28;5031323;28;20137;-65
2022/12/12 05:47:33;;;;;;;62.08;38.70;;;;;;;-1.01;100.00;160312.66;5029986;28;20037;-64
2022/12/12 05:49:58;;;;;;;53.33;32.70;;;;;;;-1.03;100.00;160307.28;5031371;28;20075;-65
2022/12/12 05:52:24;;;;;;;64.25;38.70;;;;;;;-1.01;100.00;160312.66;5030175;28;20041;-65
2022/12/12 05:54:49;;;;;;;60.25;35.63;;;;;;;-1.01;100.00;160312.66;5031539;28;20096;-65
2022/12/12 05:57:16;;;;;;;56.85;39.83;;;;;;;-1.03;100.00;160307.28;5024803;28;20029;-62
2022/12/12 05:59:42;;;;;;;56.63;35.78;;;;;;;-0.95;100.00;160327.34;5031754;28;20018;-60
2022/12/12 06:02:07;;;;;;;63.00;37.00;;;;;;;-0.92;100.00;160334.03;5029548;28;20048;-60
2022/12/12 06:04:32;;;;;;;61.22;38.72;;;;;;;-0.96;100.00;160326.03;5031293;28;20385;-59
2022/12/12 06:06:58;;;;;;;56.30;34.83;;;;;;;-0.96;100.00;160326.03;5029880;28;20037;-60
2022/12/12 06:09:23;;;;;;;50.67;34.10;;;;;;;-1.02;100.00;160308.59;5031335;28;20042;-60
2022/12/12 06:11:48;;;;;;;52.55;36.22;;;;;;;-1.01;100.00;160312.66;5029608;28;20485;-60
2022/12/12 06:14:14;;;;;;;58.08;35.65;;;;;;;-0.98;100.00;160320.66;5031037;28;20021;-59
2022/12/12 06:16:39;;;;;;;50.10;36.35;;;;;;;-0.93;100.00;160332.72;5029853;28;20060;-59
2022/12/12 06:19:04;;;;;;;59.83;37.92;;;;;;;-0.85;100.00;160352.78;5030708;28;20428;-60
2022/12/12 06:21:30;;;;;;;56.95;36.60;;;;;;;-0.85;100.00;160352.78;5029859;28;20037;-60
2022/12/12 06:23:55;;;;;;;54.15;33.58;;;;;;;-0.83;100.00;160358.16;5030658;28;20033;-60
2022/12/12 06:26:21;;;;;;;64.13;38.20;;;;;;;-0.88;100.00;160346.09;5029470;28;20057;-59
2022/12/12 06:28:47;;;;;;;51.88;34.38;;;;;;;-0.82;100.00;160360.84;5031040;28;20029;-60
2022/12/12 06:31:13;;;;;;;55.03;34.60;;;;;;;-0.81;100.00;160363.53;5029334;28;20496;-59
2022/12/12 06:33:40;;;;;;;49.63;33.75;;;;;;;-0.85;100.00;160352.78;5030651;28;20037;-60
2022/12/12 06:36:22;;;;;;;51.60;34.58;;;;;;;-0.90;100.00;160339.41;5028665;28;20081;-60
2022/12/12 06:38:52;;;;;;;55.60;34.65;;;;;;;-0.86;100.00;160351.47;5031216;28;20039;-60
2022/12/12 06:41:19;;;;;;;54.78;35.22;;;;;;;-0.84;100.00;160355.47;5028882;28;20065;-60
2022/12/12 06:43:44;;;;;;;53.15;35.13;;;;;;;-0.81;100.00;160364.84;5030993;28;20052;-59
2022/12/12 06:46:18;;;;;;;61.17;35.80;;;;;;;-0.89;100.00;160342.09;5029026;28;20047;-60
2022/12/12 06:48:44;;;;;;;55.55;33.58;;;;;;;-0.92;100.00;160335.41;5030580;28;20056;-60
2022/12/12 06:51:14;;;;;;;56.40;35.20;;;;;;;-0.92;100.00;160335.41;5028991;28;20048;-60
2022/12/12 06:53:39;;;;;;;58.22;35.70;;;;;;;-0.96;100.00;160324.66;5027081;28;20025;-60
2022/12/12 06:56:09;;;;;;;54.03;35.53;;;;;;;-0.90;100.00;160340.75;5025710;28;20140;-60
2022/12/12 06:58:35;;;;;;;59.35;33.22;;;;;;;-0.92;100.00;160334.03;5029649;28;20021;-60
2022/12/12 07:01:01;;;;;;;55.88;32.97;;;;;;;-0.92;100.00;160335.41;5028904;28;20049;-60
2022/12/12 07:03:26;;;;;;;63.83;37.67;;;;;;;-0.98;100.00;160320.66;5029942;28;20538;-60
2022/12/12 07:05:51;;;;;;;53.20;34.08;;;;;;;-0.97;100.00;160323.34;5028959;28;20032;-60
2022/12/12 07:08:16;;;;;;;57.00;36.13;;;;;;;-1.08;100.00;160293.84;5030569;28;20037;-59
2022/12/12 07:10:43;;;;;;;56.90;33.72;;;;;;;-0.97;100.00;160323.34;5028563;28;20021;-59
2022/12/12 07:13:09;;;;;;;61.67;35.85;;;;;;;-0.96;100.00;160326.03;5030146;28;20049;-59
2022/12/12 07:15:40;;;;;;;54.03;33.58;;;;;;;-0.91;100.00;160336.72;5029015;28;20063;-58
2022/12/12 07:18:05;;;;;;;55.53;32.85;;;;;;;-0.91;100.00;160338.09;5028827;28;20025;-60
2022/12/12 07:20:30;;;;;;;53.70;32.08;;;;;;;-0.88;100.00;160344.78;5030523;28;20028;-59
2022/12/12 07:22:56;;;;;;;56.90;36.17;;;;;;;-0.89;100.00;160342.09;5028605;28;20041;-59
2022/12/12 07:25:21;;;;;;;50.90;34.47;;;;;;;-0.90;100.00;160339.41;5029367;28;20132;-60
2022/12/12 07:27:46;;;;;;;61.58;37.03;;;;;;;-0.94;100.00;160330.03;5027886;28;20044;-60
2022/12/12 07:30:12;;;;;;;60.28;36.88;;;;;;;-0.93;100.00;160331.41;5028070;28;20384;-60
2022/12/12 07:32:37;;;;;;;59.25;34.85;;;;;;;-0.96;100.00;160326.03;5026682;28;20045;-59
2022/12/12 07:35:02;;;;;;;56.20;32.05;;;;;;;-0.97;100.00;160323.34;5028394;28;20027;-60
2022/12/12 07:37:28;;;;;;;55.15;32.10;;;;;;;-0.98;100.00;160319.34;5027118;28;20209;-60
2022/12/12 07:39:53;;;;;;;52.17;32.92;;;;;;;-0.98;100.00;160319.34;5028002;28;20018;-60
2022/12/12 07:42:19;;;;;;;48.13;31.58;;;;;;;-1.00;100.00;160315.28;5028525;28;20326;-60
2022/12/12 07:44:44;;;;;;;54.97;33.78;;;;;;;-0.94;100.00;160328.72;5027104;28;20072;-60
2022/12/12 07:47:10;;;;;;;48.63;35.60;;;;;;;-0.90;100.00;160340.75;5020740;28;20049;-60
2022/12/12 07:49:36;;;;;;;44.80;31.42;;;;;;;-0.88;100.00;160344.78;5032294;28;20075;-60
2022/12/12 07:52:01;;;;;;;55.17;31.02;;;;;;;-0.89;100.00;160342.09;5022237;28;20041;-60
2022/12/12 07:54:27;;;;;;;50.97;33.22;;;;;;;-0.78;100.00;160370.22;5013833;28;20052;-60
2022/12/12 07:56:52;;;;;;;54.38;35.13;;;;;;;-0.81;100.00;160364.84;5025237;28;20045;-60
2022/12/12 07:59:17;;;;;;;52.97;33.35;;;;;;;-0.80;100.00;160367.53;5031402;28;20032;-60
2022/12/12 08:01:43;;;;;;;46.35;30.80;;;;;;;-0.73;100.00;160384.94;5031710;28;20042;-60
2022/12/12 08:04:08;;;;;;;49.67;31.00;;;;;;;-0.75;100.00;160379.59;5033599;28;20017;-60
2022/12/12 08:06:33;;;;;;;50.28;28.67;;;;;;;-0.71;100.00;160390.28;5032029;28;20041;-60
2022/12/12 08:08:59;;;;;;;54.35;31.02;;;;;;;-0.67;100.00;160401.03;5033194;28;20464;-60
2022/12/12 08:11:24;;;;;;;58.13;33.50;;;;;;;-0.71;100.00;160390.28;5032324;28;20115;-60
2022/12/12 08:13:50;;;;;;;52.38;31.27;;;;;;;-0.76;100.00;160376.91;5033759;28;20531;-60
2022/12/12 08:16:22;;;;;;;55.13;32.90;;;;;;;-0.79;100.00;160368.88;5031573;28;20041;-60
2022/12/12 08:18:48;;;;;;;63.22;36.72;;;;;;;-0.82;100.00;160360.84;5033547;28;20044;-60
2022/12/12 08:21:15;;;;;;;48.95;33.45;;;;;;;-0.79;100.00;160368.88;5031673;28;20457;-60
2022/12/12 08:23:41;;;;;;;60.83;36.03;;;;;;;-0.78;100.00;160371.53;5033009;28;20033;-60
2022/12/12 08:26:13;;;;;;;59.25;31.45;;;;;;;-0.75;100.00;160379.59;5031670;28;20515;-60
2022/12/12 08:28:48;;;;;;;56.45;33.70;;;;;;;-0.74;100.00;160382.28;5033683;28;20021;-60
2022/12/12 08:31:15;;;;;;;67.50;35.78;;;;;;;-0.69;100.00;160395.66;5031213;28;20046;-60
2022/12/12 08:33:40;;;;;;;51.63;33.50;;;;;;;-0.71;100.00;160390.28;5033176;28;20594;-60
2022/12/12 08:36:13;;;;;;;57.50;34.63;;;;;;;-0.65;100.00;160406.38;5031558;28;20037;-60
2022/12/12 08:38:38;;;;;;;52.03;33.80;;;;;;;-0.61;100.00;160414.41;5032898;28;20064;-60
2022/12/12 08:41:03;;;;;;;54.13;34.13;;;;;;;-0.57;100.00;160425.13;5030426;28;20041;-60
2022/12/12 08:43:29;;;;;;;50.33;33.80;;;;;;;-0.54;100.00;160433.16;5032972;28;20135;-60
2022/12/12 08:46:01;;;;;;;51.80;31.55;;;;;;;-0.49;100.00;160446.56;5030749;28;20045;-60
2022/12/12 08:48:27;;;;;;;51.70;34.63;;;;;;;-0.45;100.00;160455.97;5033087;28;20040;-60
2022/12/12 08:50:53;;;;;;;52.35;34.55;;;;;;;-0.39;100.00;160473.34;5031428;28;20045;-60
2022/12/12 08:53:18;;;;;;;49.75;34.45;;;;;;;-0.39;100.00;160473.34;5032561;28;20392;-60
2022/12/12 08:55:44;;;;;;;53.60;35.08;;;;;;;-0.36;100.00;160480.03;5031323;28;20037;-60
2022/12/12 08:58:09;;;;;;;61.55;35.13;;;;;;;-0.32;100.00;160492.09;5032511;28;20016;-60
2022/12/12 09:00:35;;;;;;;58.20;36.17;;;;;;;-0.18;100.00;160526.91;5031973;28;20495;-59
2022/12/12 09:03:01;;;;;;;56.28;33.03;;;;;;;-0.05;100.00;160560.44;5030821;28;20038;-61
2022/12/12 09:05:26;;;;;;;59.17;36.38;;;;;;;0.01;100.00;160576.50;5032629;28;20044;-60
2022/12/12 09:07:52;;;;;;;64.47;39.55;;;;;;;0.04;100.00;160584.56;5030642;28;20048;-60
2022/12/12 09:10:17;;;;;;;60.38;37.65;;;;;;;0.08;100.00;160593.94;5032464;28;20029;-60
2022/12/12 09:12:42;;;;;;;59.80;37.50;;;;;;;0.15;100.00;160612.72;5030666;28;20050;-61
2022/12/12 09:15:08;;;;;;;69.85;39.53;;;;;;;0.09;100.00;160596.63;5031733;28;20025;-61
2022/12/12 09:17:34;;;;;;;60.38;35.53;;;;;;;0.29;100.00;160650.22;5030882;28;20041;-61
2022/12/12 09:19:59;;;;;;;57.42;34.58;;;;;;;0.55;100.00;160717.28;5031649;28;20080;-61
2022/12/12 09:22:24;;;;;;;63.03;41.75;;;;;;;0.68;100.00;160749.44;5030678;28;20049;-61
2022/12/12 09:24:50;;;;;;;67.70;38.63;;;;;;;0.75;100.00;160769.53;5031913;28;20476;-61
2022/12/12 09:27:15;;;;;;;58.30;39.13;;;;;;;0.92;100.00;160812.44;5030440;28;20073;-61
2022/12/12 09:29:40;;;;;;;63.05;38.13;;;;;;;1.34;100.00;160921.09;5031840;28;20040;-61
2022/12/12 09:32:06;;;;;;;60.88;38.25;;;;;;;1.80;100.00;161040.47;5030585;28;20045;-61
2022/12/12 09:34:32;;;;;;;64.25;40.20;;;;;;;2.15;100.00;161131.78;5031976;28;20452;-61
2022/12/12 09:36:58;;;;;;;58.17;38.58;;;;;;;2.36;100.00;161186.75;5029691;28;20041;-61
2022/12/12 09:39:23;;;;;;;58.88;37.60;;;;;;;2.51;100.00;161227.03;5031706;28;20025;-61
2022/12/12 09:41:49;;;;;;;70.30;38.80;;;;;;;2.57;100.00;161240.50;5030343;28;20049;-61
2022/12/12 09:44:19;;;;;;;61.53;37.97;;;;;;;2.63;100.00;161256.59;5030957;28;20057;-60
2022/12/12 09:46:54;;;;;;;51.05;35.53;;;;;;;2.70;100.00;161275.41;5030302;28;20045;-61
2022/12/12 09:49:37;;;;;;;80.03;33.72;;;;;;;2.68;100.00;161271.34;5031683;28;20025;-61
2022/12/12 09:52:03;;;;;;;56.78;37.60;;;;;;;2.68;100.00;161270.03;5029739;28;20076;-61
2022/12/12 09:54:28;;;;;;;57.55;35.83;;;;;;;2.83;100.00;161308.97;5031472;28;20132;-61
2022/12/12 09:57:03;;;;;;;53.00;32.90;;;;;;;2.95;100.00;161341.19;5029865;28;20042;-61
2022/12/12 09:59:33;;;;;;;50.42;32.90;;;;;;;2.96;100.00;161343.88;5030931;28;20026;-61
2022/12/12 10:02:24;;;;;;;49.00;33.17;;;;;;;2.79;100.00;161298.22;5029653;28;20041;-61
2022/12/12 10:04:52;;;;;;;49.58;32.58;;;;;;;2.43;100.00;161205.56;5031287;28;20255;-60
2022/12/12 10:07:25;;;;;;;48.92;33.08;;;;;;;2.12;100.00;161125.06;5029418;28;20042;-61
2022/12/12 10:10:21;;;;;;;59.28;35.58;;;;;;;1.89;100.00;161066.00;5022862;28;20077;-61
2022/12/12 10:12:48;;;;;;;59.30;38.38;;;;;;;1.62;100.00;160993.53;5029196;28;20140;-61
2022/12/12 10:15:24;;;;;;;59.78;38.80;;;;;;;1.55;100.00;160977.44;5030562;28;20391;-61
2022/12/12 10:17:50;;;;;;;66.63;38.95;;;;;;;1.32;100.00;160915.72;5029542;28;20068;-61
2022/12/12 10:20:26;;;;;;;66.65;41.30;;;;;;;1.01;100.00;160835.22;5030857;28;20495;-61
2022/12/12 10:23:18;;;;;;;67.00;43.90;;;;;;;0.97;100.00;160825.84;5028885;28;20129;-61
2022/12/12 10:26:04;;;;;;;58.60;37.85;;;;;;;0.76;100.00;160770.91;5009798;28;20024;-60
2022/12/12 10:28:30;;;;;;;67.57;40.17;;;;;;;0.75;100.00;160768.22;5011404;28;20093;-60
2022/12/12 10:31:19;;;;;;;70.07;43.47;;;;;;;0.63;100.00;160738.69;5009235;28;20057;-61
2022/12/12 10:34:04;;;;;;;71.07;46.83;;;;;;;0.47;100.00;160695.81;5011539;28;20619;-60
2022/12/12 10:36:47;;;;;;;68.40;40.63;;;;;;;0.49;100.00;160701.16;5009349;28;20044;-61
2022/12/12 10:39:38;;;;;;;69.35;43.55;;;;;;;0.52;100.00;160707.91;5010988;28;20487;-61
2022/12/12 10:42:18;;;;;;;67.47;43.53;;;;;;;0.52;100.00;160709.22;5009472;28;20038;-61
2022/12/12 10:45:14;;;;;;;82.95;49.88;;;;;;;0.37;100.00;160669.00;5010446;28;20050;-61
2022/12/12 10:47:40;;;;;;;72.82;44.38;;;;;;;0.31;100.00;160655.59;5009603;28;20046;-61
2022/12/12 10:50:24;;;;;;;79.60;47.70;;;;;;;0.36;100.00;160666.31;5010674;28;20026;-60
2022/12/12 10:52:49;;;;;;;75.55;46.70;;;;;;;0.37;100.00;160669.00;5009445;28;20037;-61
2022/12/12 10:55:33;;;;;;;79.53;47.28;;;;;;;0.38;100.00;160673.00;5011087;28;20080;-61
2022/12/12 10:58:00;;;;;;;71.07;45.22;;;;;;;0.50;100.00;160702.53;5009407;28;20100;-61
2022/12/12 11:00:31;;;;;;;74.25;50.13;;;;;;;0.56;100.00;160719.91;5011076;28;20084;-61
2022/12/12 11:02:57;;;;;;;78.68;52.72;;;;;;;0.68;100.00;160749.44;5009207;28;20116;-61
2022/12/12 11:05:27;;;;;;;74.25;46.22;;;;;;;0.90;100.00;160807.06;5010426;28;20061;-61
2022/12/12 11:08:02;;;;;;;68.35;45.55;;;;;;;0.93;100.00;160816.47;5008826;28;20125;-61
2022/12/12 11:10:34;;;;;;;71.03;43.40;;;;;;;1.12;100.00;160863.44;5010750;28;20385;-61
2022/12/12 11:13:21;;;;;;;63.70;42.60;;;;;;;1.21;100.00;160888.91;5008642;28;20048;-61
2022/12/12 11:15:55;;;;;;;55.33;37.42;;;;;;;1.29;100.00;160907.69;5009076;28;20068;-61
2022/12/12 11:18:22;;;;;;;48.65;33.13;;;;;;;1.30;100.00;160911.69;5010782;28;20029;-61
2022/12/12 11:21:05;;;;;;;47.33;36.58;;;;;;;1.27;100.00;160905.00;5003721;28;20025;-61
2022/12/12 11:23:32;;;;;;;44.13;32.22;;;;;;;1.27;100.00;160905.00;5013916;28;20036;-61
2022/12/12 11:26:09;;;;;;;52.03;31.77;;;;;;;1.29;100.00;160909.00;5012964;28;20022;-61
2022/12/12 11:28:37;;;;;;;49.63;30.92;;;;;;;1.28;100.00;160906.31;5014434;28;20050;-61
2022/12/12 11:31:11;;;;;;;48.72;30.92;;;;;;;1.35;100.00;160923.78;5012952;28;20583;-61